Time;durP1;ratioP1;P1;durP2;ratioP2;P2;SDS_P1;SDS_P2;PMS_P1;PMS_P2;Temp;Humidity;BMP_temperature;BMP_pressure;BME280_temperature;BME280_humidity;BME280_pressure;Samples;Min_cycle;Max_cycle;Signal;HPM_P1;HPM_P2
2022/06/07 00:00:34;;;;;;;11.02;8.90;;;14.70;99.90;;;;;;5035587;28;20068;-77
2022/06/07 00:03:00;;;;;;;9.77;8.82;;;14.70;99.90;;;;;;5035270;28;20026;-77
2022/06/07 00:05:26;;;;;;;10.82;9.73;;;14.80;99.90;;;;;;5035333;28;20053;-77
2022/06/07 00:07:54;;;;;;;11.98;9.80;;;14.80;99.90;;;;;;5035551;28;20017;-77
2022/06/07 00:10:21;;;;;;;14.63;11.10;;;14.80;99.90;;;;;;5035508;28;20025;-77
2022/06/07 00:12:47;;;;;;;14.32;12.02;;;14.80;99.90;;;;;;5035177;28;20026;-77
2022/06/07 00:15:12;;;;;;;14.77;12.45;;;14.80;99.90;;;;;;5035370;28;20044;-77
2022/06/07 00:17:38;;;;;;;15.55;12.68;;;14.80;99.90;;;;;;5035113;28;20473;-77
2022/06/07 00:20:05;;;;;;;15.20;12.18;;;14.80;99.90;;;;;;5035104;28;20112;-77
2022/06/07 00:22:32;;;;;;;15.95;12.75;;;14.80;99.90;;;;;;5034949;28;20028;-77
2022/06/07 00:24:57;;;;;;;14.75;12.93;;;14.80;99.90;;;;;;5035086;28;20030;-77
2022/06/07 00:27:24;;;;;;;17.40;13.27;;;14.80;99.90;;;;;;5034969;28;20068;-77
2022/06/07 00:29:50;;;;;;;19.88;15.70;;;14.90;99.90;;;;;;5035121;28;20104;-77
2022/06/07 00:32:19;;;;;;;19.33;15.32;;;14.90;99.90;;;;;;5034867;28;20449;-77
2022/06/07 00:34:45;;;;;;;17.42;15.20;;;14.90;99.90;;;;;;5035016;28;20168;-77
2022/06/07 00:37:10;;;;;;;18.92;16.95;;;14.90;99.90;;;;;;5034860;28;20097;-77
2022/06/07 00:39:36;;;;;;;18.75;16.63;;;14.90;99.90;;;;;;5034791;28;20535;-77
2022/06/07 00:42:02;;;;;;;20.45;16.85;;;14.90;99.90;;;;;;5034829;28;20083;-78
2022/06/07 00:44:38;;;;;;;24.45;19.58;;;14.90;99.90;;;;;;5034638;28;20028;-77
2022/06/07 00:47:14;;;;;;;19.40;16.88;;;14.90;99.90;;;;;;5034015;28;20033;-77
2022/06/07 00:49:47;;;;;;;21.73;17.80;;;14.90;99.90;;;;;;5034556;28;20025;-77
2022/06/07 00:52:14;;;;;;;25.05;19.55;;;14.90;99.90;;;;;;5034825;28;20083;-77
2022/06/07 00:54:40;;;;;;;23.23;18.80;;;14.90;99.90;;;;;;5034372;28;20036;-78
2022/06/07 00:57:06;;;;;;;27.92;19.50;;;14.90;99.90;;;;;;5034535;28;20037;-77
2022/06/07 00:59:32;;;;;;;26.35;20.67;;;14.90;99.90;;;;;;5034361;28;20017;-77
2022/06/07 01:01:58;;;;;;;26.25;20.13;;;14.90;99.90;;;;;;5034284;28;20025;-77
2022/06/07 01:04:27;;;;;;;26.77;20.02;;;14.90;99.90;;;;;;5034332;28;20491;-77
2022/06/07 01:12:21;;;;;;;28.10;22.45;;;14.90;99.90;;;;;;5034156;28;20103;-77
2022/06/07 01:14:47;;;;;;;35.00;22.52;;;14.90;99.90;;;;;;5033812;28;20477;-77
2022/06/07 01:17:12;;;;;;;27.95;21.42;;;14.90;99.90;;;;;;5034058;28;20021;-78
2022/06/07 01:19:39;;;;;;;30.50;22.95;;;15.00;99.90;;;;;;5034095;28;20051;-77
2022/06/07 01:22:04;;;;;;;28.45;21.85;;;14.90;99.90;;;;;;5034020;28;20489;-78
2022/06/07 01:24:30;;;;;;;29.08;23.30;;;14.90;99.90;;;;;;5034159;28;20036;-77
2022/06/07 01:26:56;;;;;;;37.95;24.90;;;15.00;99.90;;;;;;5033642;28;20415;-77
2022/06/07 01:29:22;;;;;;;36.22;24.20;;;15.00;99.90;;;;;;5034033;28;20029;-77
2022/06/07 01:31:48;;;;;;;31.95;22.70;;;14.90;99.90;;;;;;5034038;28;20160;-77
2022/06/07 01:34:14;;;;;;;30.00;21.75;;;14.90;99.90;;;;;;5033586;28;20057;-77
2022/06/07 01:36:40;;;;;;;30.63;22.10;;;14.90;99.90;;;;;;5033503;28;20502;-77
2022/06/07 01:41:55;;;;;;;34.45;22.50;;;14.90;99.90;;;;;;5033934;28;20107;-77
2022/06/07 01:44:27;;;;;;;30.92;23.27;;;14.90;99.90;;;;;;5033341;28;20600;-77
2022/06/07 01:46:54;;;;;;;32.83;22.77;;;14.90;99.90;;;;;;5033729;28;20029;-77
2022/06/07 01:49:21;;;;;;;31.80;23.38;;;14.90;99.90;;;;;;5033780;28;20417;-77
2022/06/07 01:51:47;;;;;;;34.40;24.88;;;14.90;99.90;;;;;;5033531;28;20493;-77
2022/06/07 01:54:14;;;;;;;31.65;22.70;;;14.90;99.90;;;;;;5033573;28;20044;-77
2022/06/07 01:56:40;;;;;;;37.33;23.98;;;14.90;99.90;;;;;;5033643;28;20030;-77
2022/06/07 01:59:06;;;;;;;33.05;23.00;;;14.90;99.90;;;;;;5032395;28;20040;-77
2022/06/07 02:01:32;;;;;;;32.50;25.17;;;14.90;99.90;;;;;;5033521;28;20026;-77
2022/06/07 02:03:58;;;;;;;33.88;24.50;;;14.90;99.90;;;;;;5033118;28;20057;-76
2022/06/07 02:06:24;;;;;;;36.15;24.73;;;15.00;99.90;;;;;;5032983;28;20056;-77
2022/06/07 02:08:49;;;;;;;33.60;24.65;;;15.00;99.90;;;;;;5033343;28;20017;-77
2022/06/07 02:11:21;;;;;;;38.60;27.08;;;15.00;99.90;;;;;;5033568;28;20025;-77
2022/06/07 02:13:48;;;;;;;37.65;27.42;;;15.00;99.90;;;;;;5033729;28;20025;-77
2022/06/07 02:16:15;;;;;;;36.65;26.63;;;15.00;99.90;;;;;;5035012;28;20053;-77
2022/06/07 02:18:40;;;;;;;37.55;27.27;;;15.00;99.90;;;;;;5034724;28;20029;-77
2022/06/07 02:21:07;;;;;;;41.85;28.23;;;14.90;99.90;;;;;;5032889;28;20021;-77
2022/06/07 02:23:35;;;;;;;34.22;28.33;;;14.90;99.90;;;;;;5033511;28;20109;-77
2022/06/07 02:26:25;;;;;;;40.08;29.27;;;15.00;99.90;;;;;;5033291;28;20036;-78
2022/06/07 02:29:14;;;;;;;38.75;29.23;;;15.00;99.90;;;;;;5026777;28;20036;-77
2022/06/07 02:31:44;;;;;;;39.60;28.45;;;15.00;99.90;;;;;;5032885;28;20022;-76
2022/06/07 02:34:11;;;;;;;39.65;29.77;;;15.00;99.90;;;;;;5033122;28;20027;-76
2022/06/07 02:36:37;;;;;;;41.15;29.50;;;14.90;99.90;;;;;;5032996;28;20029;-77
2022/06/07 02:39:04;;;;;;;41.08;28.05;;;15.00;99.90;;;;;;5033260;28;20109;-76
2022/06/07 02:41:32;;;;;;;44.42;30.30;;;15.00;99.90;;;;;;5032954;28;20048;-77
2022/06/07 02:43:58;;;;;;;43.65;30.80;;;14.90;99.90;;;;;;5032914;28;20500;-76
2022/06/07 02:46:23;;;;;;;35.47;27.13;;;14.90;99.90;;;;;;5032880;28;20029;-77
2022/06/07 02:48:50;;;;;;;35.80;27.88;;;14.90;99.90;;;;;;5032944;28;20025;-76
2022/06/07 02:51:15;;;;;;;37.42;27.80;;;15.00;99.90;;;;;;5033111;28;20428;-76
2022/06/07 02:53:41;;;;;;;36.38;27.55;;;15.00;99.90;;;;;;5032783;28;20029;-76
2022/06/07 02:56:07;;;;;;;37.55;27.85;;;15.00;99.90;;;;;;5032754;28;20030;-76
2022/06/07 02:58:32;;;;;;;37.75;28.15;;;15.00;99.90;;;;;;5032856;28;20117;-76
2022/06/07 03:00:58;;;;;;;40.03;27.52;;;15.00;99.90;;;;;;5033084;28;20108;-77
2022/06/07 03:03:25;;;;;;;35.47;26.73;;;14.90;99.90;;;;;;5033006;28;20465;-77
2022/06/07 03:05:50;;;;;;;32.15;26.48;;;15.00;99.90;;;;;;5032762;28;20052;-77
2022/06/07 03:08:18;;;;;;;34.78;25.92;;;15.00;99.90;;;;;;5032465;28;20022;-77
2022/06/07 03:10:48;;;;;;;35.78;26.52;;;15.00;99.90;;;;;;5034315;28;20026;-76
2022/06/07 03:13:16;;;;;;;34.58;25.83;;;15.00;99.90;;;;;;5036298;28;20022;-78
2022/06/07 03:15:42;;;;;;;33.67;26.77;;;15.00;99.90;;;;;;5036467;28;20033;-76
2022/06/07 03:18:09;;;;;;;35.33;26.98;;;15.00;99.90;;;;;;5036208;28;20030;-77
2022/06/07 03:20:36;;;;;;;37.85;27.55;;;14.90;99.90;;;;;;5036299;28;20103;-76
2022/06/07 03:23:02;;;;;;;35.25;27.20;;;14.90;99.90;;;;;;5036223;28;20021;-76
2022/06/07 03:25:28;;;;;;;37.70;27.55;;;14.90;99.90;;;;;;5036501;28;20117;-76
2022/06/07 03:27:54;;;;;;;35.38;27.42;;;14.90;99.90;;;;;;5036319;28;20045;-76
2022/06/07 03:30:20;;;;;;;36.60;27.15;;;14.90;99.90;;;;;;5035880;28;20034;-76
2022/06/07 03:32:46;;;;;;;33.70;27.25;;;14.90;99.90;;;;;;5036131;28;20026;-76
2022/06/07 03:35:14;;;;;;;35.38;27.20;;;14.90;99.90;;;;;;5036178;28;20032;-76
2022/06/07 03:37:40;;;;;;;33.92;28.27;;;14.90;99.90;;;;;;5036221;28;20029;-76
2022/06/07 03:40:08;;;;;;;35.22;27.58;;;14.90;99.90;;;;;;5036151;28;20017;-76
2022/06/07 03:42:34;;;;;;;34.33;27.20;;;14.90;99.90;;;;;;5035881;28;20025;-76
2022/06/07 03:45:00;;;;;;;36.03;27.67;;;14.90;99.90;;;;;;5035806;28;20025;-77
2022/06/07 03:47:26;;;;;;;35.42;28.05;;;14.90;99.90;;;;;;5036036;28;20028;-76
2022/06/07 03:49:52;;;;;;;34.38;26.48;;;14.80;99.90;;;;;;5035611;28;20025;-76
2022/06/07 03:52:18;;;;;;;38.35;29.45;;;14.80;99.90;;;;;;5035475;28;20064;-76
2022/06/07 03:54:44;;;;;;;35.45;26.30;;;14.80;99.90;;;;;;5035367;28;20489;-77
2022/06/07 03:57:11;;;;;;;32.72;24.58;;;14.80;99.90;;;;;;5035529;28;20044;-77
2022/06/07 03:59:37;;;;;;;32.50;24.63;;;14.80;99.90;;;;;;5035741;28;20030;-77
2022/06/07 04:02:06;;;;;;;33.22;25.15;;;14.80;99.90;;;;;;5035507;28;20025;-77
2022/06/07 04:04:33;;;;;;;29.85;24.17;;;14.80;99.90;;;;;;5034979;28;20481;-76
2022/06/07 04:09:43;;;;;;;27.92;23.52;;;14.80;99.90;;;;;;5035431;28;20036;-76
2022/06/07 04:12:12;;;;;;;29.65;23.33;;;14.80;99.90;;;;;;5035262;28;20017;-76
2022/06/07 04:14:40;;;;;;;38.78;25.88;;;14.80;99.90;;;;;;5034948;28;20034;-76
2022/06/07 04:17:06;;;;;;;34.65;25.80;;;14.80;99.90;;;;;;5035624;28;20026;-75
2022/06/07 04:19:36;;;;;;;32.58;24.27;;;14.80;99.90;;;;;;5035502;28;20034;-76
2022/06/07 04:22:03;;;;;;;31.70;23.80;;;14.80;99.90;;;;;;5034302;28;20381;-76
2022/06/07 04:24:29;;;;;;;31.65;24.70;;;14.80;99.90;;;;;;5035319;28;20021;-76
2022/06/07 04:26:55;;;;;;;30.10;23.88;;;14.80;99.90;;;;;;5035320;28;20083;-76
2022/06/07 04:29:20;;;;;;;30.88;25.17;;;14.80;99.90;;;;;;5034899;28;20021;-76
2022/06/07 04:31:46;;;;;;;29.75;24.63;;;14.90;99.90;;;;;;5034669;28;20044;-76
2022/06/07 04:34:12;;;;;;;36.90;25.63;;;14.90;99.90;;;;;;5034832;28;20025;-76
2022/06/07 04:36:38;;;;;;;34.55;25.67;;;14.90;99.90;;;;;;5035026;28;20044;-76
2022/06/07 04:39:05;;;;;;;33.53;25.20;;;14.90;99.90;;;;;;5034598;28;20021;-76
2022/06/07 04:41:33;;;;;;;33.03;26.33;;;14.90;99.90;;;;;;5034841;28;20021;-77
2022/06/07 04:43:59;;;;;;;34.22;24.52;;;14.90;99.90;;;;;;5034723;28;20018;-76
2022/06/07 04:46:26;;;;;;;31.13;25.30;;;14.90;99.90;;;;;;5034904;28;20164;-76
2022/06/07 04:48:53;;;;;;;37.40;25.58;;;14.80;99.90;;;;;;5034585;28;20030;-77
2022/06/07 04:51:24;;;;;;;29.23;23.95;;;14.80;99.90;;;;;;5034572;28;20025;-76
2022/06/07 04:53:51;;;;;;;29.55;23.33;;;14.80;99.90;;;;;;5034779;28;20099;-76
2022/06/07 04:56:25;;;;;;;34.22;26.13;;;14.80;99.90;;;;;;5034477;28;20079;-76
2022/06/07 04:58:52;;;;;;;35.05;27.73;;;14.80;99.90;;;;;;5034325;28;20398;-76
2022/06/07 05:01:24;;;;;;;33.13;27.65;;;14.80;99.90;;;;;;5034319;28;20030;-76
2022/06/07 05:03:50;;;;;;;37.28;29.17;;;14.90;99.90;;;;;;5034567;28;20033;-76
2022/06/07 05:06:17;;;;;;;33.03;26.67;;;14.90;99.90;;;;;;5033887;28;20057;-77
2022/06/07 05:08:42;;;;;;;34.30;27.00;;;14.80;99.90;;;;;;5034182;28;20033;-76
2022/06/07 05:11:08;;;;;;;28.85;25.05;;;14.80;99.90;;;;;;5034172;28;20028;-76
2022/06/07 05:13:33;;;;;;;31.73;25.17;;;14.80;99.90;;;;;;5034229;28;20021;-76
2022/06/07 05:15:59;;;;;;;37.88;27.60;;;14.80;99.90;;;;;;5034311;28;20117;-76
2022/06/07 05:18:25;;;;;;;32.55;25.80;;;14.80;99.90;;;;;;5033904;28;20025;-77
2022/06/07 05:20:50;;;;;;;32.22;26.80;;;14.80;99.90;;;;;;5034195;28;20446;-78
2022/06/07 05:23:16;;;;;;;35.00;26.83;;;14.80;99.90;;;;;;5034278;28;20028;-77
2022/06/07 05:25:53;;;;;;;32.10;26.40;;;14.80;99.90;;;;;;5033972;28;20048;-77
2022/06/07 05:28:19;;;;;;;32.58;26.67;;;14.80;99.90;;;;;;5033825;28;20442;-78
2022/06/07 05:30:45;;;;;;;33.15;26.83;;;14.80;99.90;;;;;;5033441;28;20053;-77
2022/06/07 05:33:12;;;;;;;31.05;26.70;;;14.70;99.90;;;;;;5033655;28;20421;-77
2022/06/07 05:35:38;;;;;;;29.08;24.65;;;14.70;99.90;;;;;;5033854;28;20033;-77
2022/06/07 05:38:04;;;;;;;35.08;27.08;;;14.80;99.90;;;;;;5033729;28;20026;-77
2022/06/07 05:40:30;;;;;;;33.28;26.80;;;14.80;99.90;;;;;;5033658;28;20044;-77
2022/06/07 05:42:56;;;;;;;31.38;25.42;;;14.80;99.90;;;;;;5033522;28;20066;-77
2022/06/07 05:45:22;;;;;;;31.38;26.35;;;14.80;99.90;;;;;;5033545;28;20559;-77
2022/06/07 05:47:48;;;;;;;30.35;25.90;;;14.80;99.90;;;;;;5033492;28;20033;-77
2022/06/07 05:50:13;;;;;;;32.33;26.42;;;14.90;99.90;;;;;;5033553;28;20079;-77
2022/06/07 05:52:42;;;;;;;34.25;26.30;;;14.90;99.90;;;;;;5033632;28;20045;-77
2022/06/07 05:55:08;;;;;;;30.73;26.70;;;14.90;99.90;;;;;;5033190;28;20032;-77
2022/06/07 05:57:34;;;;;;;32.88;26.48;;;14.90;99.90;;;;;;5033702;28;20432;-77
2022/06/07 06:00:01;;;;;;;28.65;25.35;;;14.80;99.90;;;;;;5033199;28;20057;-77
2022/06/07 06:02:26;;;;;;;28.88;25.10;;;14.80;99.90;;;;;;5033422;28;20048;-77
2022/06/07 06:04:52;;;;;;;29.92;24.27;;;14.80;99.90;;;;;;5032984;28;20484;-77
2022/06/07 06:07:18;;;;;;;33.92;26.27;;;14.90;99.90;;;;;;5033183;28;20051;-77
2022/06/07 06:12:36;;;;;;;30.67;24.20;;;14.80;99.90;;;;;;5017209;28;20423;-77
2022/06/07 06:15:01;;;;;;;33.33;24.00;;;14.80;99.90;;;;;;5033456;28;20040;-76
2022/06/07 06:17:27;;;;;;;29.40;22.95;;;14.80;99.90;;;;;;5033030;28;20022;-77
2022/06/07 06:19:53;;;;;;;27.70;22.45;;;14.90;99.90;;;;;;5033120;28;20381;-77
2022/06/07 06:22:19;;;;;;;31.40;24.88;;;14.90;99.90;;;;;;5033061;28;20048;-77
2022/06/07 06:24:45;;;;;;;30.00;22.10;;;15.00;99.90;;;;;;5033063;28;20021;-76
2022/06/07 06:27:11;;;;;;;32.03;23.40;;;15.00;99.90;;;;;;5032677;28;20036;-77
2022/06/07 06:29:36;;;;;;;29.10;23.40;;;15.00;99.90;;;;;;5033130;28;20108;-76
2022/06/07 06:32:02;;;;;;;31.33;24.27;;;15.00;99.90;;;;;;5033130;28;20021;-76
2022/06/07 06:34:29;;;;;;;31.45;23.63;;;15.10;99.90;;;;;;5032821;28;20018;-76
2022/06/07 06:36:56;;;;;;;30.50;24.13;;;15.00;99.90;;;;;;5032961;28;20040;-76
2022/06/07 06:39:23;;;;;;;30.67;23.73;;;15.00;99.90;;;;;;5032646;28;20033;-76
2022/06/07 06:41:49;;;;;;;27.20;22.23;;;15.00;99.90;;;;;;5033208;28;20025;-76
2022/06/07 06:44:15;;;;;;;27.58;22.27;;;15.00;99.90;;;;;;5032883;28;20021;-76
2022/06/07 06:46:44;;;;;;;28.63;22.55;;;15.10;99.90;;;;;;5035895;28;20117;-76
2022/06/07 06:49:13;;;;;;;30.08;22.30;;;15.10;99.90;;;;;;5036949;28;20028;-76
2022/06/07 06:51:41;;;;;;;28.73;21.10;;;15.10;99.90;;;;;;5036542;28;20045;-77
2022/06/07 06:54:07;;;;;;;26.33;21.77;;;15.20;99.90;;;;;;5036480;28;20018;-76
2022/06/07 06:56:33;;;;;;;24.83;20.88;;;15.20;99.90;;;;;;5036805;28;20044;-76
2022/06/07 06:58:59;;;;;;;24.75;20.60;;;15.30;99.90;;;;;;5036890;28;20377;-77
2022/06/07 07:01:31;;;;;;;29.77;21.88;;;15.40;99.90;;;;;;5036533;28;20034;-76
2022/06/07 07:04:02;;;;;;;27.65;21.90;;;15.40;99.90;;;;;;5036616;28;20021;-76
2022/06/07 07:06:28;;;;;;;36.45;24.10;;;15.40;99.90;;;;;;5036569;28;20120;-76
2022/06/07 07:08:55;;;;;;;28.65;21.27;;;15.40;99.90;;;;;;5036321;28;20074;-77
2022/06/07 07:11:25;;;;;;;34.03;22.00;;;15.40;99.90;;;;;;5036634;28;20105;-76
2022/06/07 07:13:56;;;;;;;33.88;22.10;;;15.40;99.90;;;;;;5036714;28;20025;-76
2022/06/07 07:16:24;;;;;;;25.48;20.98;;;15.40;99.90;;;;;;5036431;28;20041;-76
2022/06/07 07:18:51;;;;;;;24.67;20.75;;;15.40;99.90;;;;;;5036278;28;20025;-76
2022/06/07 07:21:21;;;;;;;27.83;21.77;;;15.40;99.90;;;;;;5036520;28;20022;-76
2022/06/07 07:23:47;;;;;;;29.67;22.67;;;15.40;99.90;;;;;;5035958;28;20492;-77
2022/06/07 07:26:23;;;;;;;25.65;20.70;;;15.50;99.90;;;;;;5036197;28;20022;-77
2022/06/07 07:28:49;;;;;;;31.05;22.23;;;15.50;99.90;;;;;;5036172;28;20021;-77
2022/06/07 07:31:18;;;;;;;32.70;22.85;;;15.50;99.90;;;;;;5035620;28;20055;-77
2022/06/07 07:33:45;;;;;;;28.23;22.65;;;15.60;99.90;;;;;;5035868;28;20088;-77
2022/06/07 07:36:11;;;;;;;26.90;22.45;;;15.60;99.90;;;;;;5035757;28;20037;-77
2022/06/07 07:38:38;;;;;;;27.48;22.63;;;15.60;99.90;;;;;;5036114;28;20022;-77
2022/06/07 07:41:04;;;;;;;30.45;23.48;;;15.70;99.90;;;;;;5035431;28;20507;-78
2022/06/07 07:43:30;;;;;;;26.92;22.63;;;15.70;99.90;;;;;;5035740;28;20029;-77
2022/06/07 07:45:56;;;;;;;25.52;20.92;;;15.80;99.90;;;;;;5035761;28;20447;-77
2022/06/07 07:48:24;;;;;;;25.23;22.20;;;15.80;99.90;;;;;;5035676;28;20028;-77
2022/06/07 07:50:50;;;;;;;26.55;22.42;;;15.80;99.90;;;;;;5035385;28;20052;-77
2022/06/07 07:53:20;;;;;;;27.27;21.20;;;15.80;99.90;;;;;;5035554;28;20469;-77
2022/06/07 07:55:48;;;;;;;24.52;19.63;;;15.80;99.90;;;;;;5035576;28;20044;-77
2022/06/07 07:58:14;;;;;;;21.05;18.10;;;15.80;99.90;;;;;;5034270;28;20022;-77
2022/06/07 08:00:48;;;;;;;29.77;20.83;;;15.90;99.90;;;;;;5035483;28;20361;-77
2022/06/07 08:03:14;;;;;;;24.08;19.77;;;16.00;99.90;;;;;;5035651;28;20021;-77
2022/06/07 08:05:40;;;;;;;23.90;19.83;;;16.00;99.90;;;;;;5035406;28;20136;-78
2022/06/07 08:08:07;;;;;;;27.27;20.35;;;16.10;99.90;;;;;;5035439;28;20025;-77
2022/06/07 08:10:33;;;;;;;25.02;19.02;;;16.10;99.90;;;;;;5035048;28;20025;-77
2022/06/07 08:13:00;;;;;;;24.63;19.58;;;16.00;99.90;;;;;;5035269;28;20022;-78
2022/06/07 08:15:29;;;;;;;22.15;18.85;;;16.10;99.90;;;;;;5035448;28;20498;-77
2022/06/07 08:17:55;;;;;;;23.35;17.25;;;16.10;99.90;;;;;;5035306;28;20028;-78
2022/06/07 08:20:22;;;;;;;23.42;18.33;;;16.10;99.90;;;;;;5034911;28;20473;-78
2022/06/07 08:22:49;;;;;;;22.65;15.75;;;16.10;99.90;;;;;;5035128;28;20029;-77
2022/06/07 08:25:16;;;;;;;20.63;15.48;;;16.00;99.90;;;;;;5035079;28;20108;-77
2022/06/07 08:27:42;;;;;;;19.95;14.00;;;16.00;99.90;;;;;;5034890;28;20029;-78
2022/06/07 08:30:08;;;;;;;15.40;13.43;;;16.00;99.90;;;;;;5034879;28;20029;-78
2022/06/07 08:32:34;;;;;;;15.77;13.45;;;16.10;99.90;;;;;;5035124;28;20116;-78
2022/06/07 08:37:45;;;;;;;21.52;14.30;;;16.10;99.90;;;;;;5035107;28;20037;-77
2022/06/07 08:40:33;;;;;;;20.40;15.43;;;16.10;99.90;;;;;;5034724;28;20126;-78
2022/06/07 08:43:05;;;;;;;18.45;14.35;;;16.10;99.90;;;;;;5034197;28;20531;-77
2022/06/07 08:45:35;;;;;;;16.80;14.32;;;16.10;99.90;;;;;;5034742;28;20109;-77
2022/06/07 08:48:09;;;;;;;19.35;14.80;;;16.30;99.90;;;;;;5034552;28;20120;-78
2022/06/07 08:50:46;;;;;;;14.98;11.55;;;16.50;99.90;;;;;;5034256;28;20445;-77
2022/06/07 08:53:28;;;;;;;12.40;10.77;;;16.40;99.90;;;;;;5034269;28;20484;-77
2022/06/07 08:55:58;;;;;;;13.20;11.10;;;16.50;99.90;;;;;;5034592;28;20120;-77
2022/06/07 08:58:27;;;;;;;15.18;11.23;;;16.50;99.90;;;;;;5034632;28;20022;-78
2022/06/07 09:00:57;;;;;;;12.63;10.57;;;16.60;99.90;;;;;;5034190;28;20108;-77
2022/06/07 09:03:44;;;;;;;12.60;10.05;;;16.60;99.90;;;;;;5033839;28;20397;-78
2022/06/07 09:06:32;;;;;;;13.27;9.55;;;16.60;99.90;;;;;;5033884;28;20046;-78
2022/06/07 09:08:59;;;;;;;14.88;12.00;;;16.70;99.90;;;;;;5034209;28;20025;-78
2022/06/07 09:14:21;;;;;;;16.60;13.65;;;16.80;99.90;;;;;;5033948;28;20444;-77
2022/06/07 09:16:48;;;;;;;20.65;15.43;;;16.80;99.90;;;;;;5034040;28;20048;-77
2022/06/07 09:19:25;;;;;;;16.88;14.85;;;16.70;99.90;;;;;;5034137;28;20022;-77
2022/06/07 09:21:53;;;;;;;20.70;15.25;;;16.70;99.90;;;;;;5034200;28;20136;-77
2022/06/07 09:24:48;;;;;;;20.23;14.40;;;16.70;99.90;;;;;;5033881;28;20025;-78
2022/06/07 09:27:17;;;;;;;16.42;13.70;;;16.80;99.90;;;;;;5030335;28;20115;-77
2022/06/07 09:29:53;;;;;;;16.77;13.82;;;16.80;99.90;;;;;;5033360;28;20029;-77
2022/06/07 09:32:20;;;;;;;16.75;14.38;;;16.70;99.90;;;;;;5033576;28;20029;-77
2022/06/07 09:34:54;;;;;;;17.67;14.05;;;16.70;99.90;;;;;;5033165;28;20033;-77
2022/06/07 09:37:39;;;;;;;19.55;15.27;;;16.70;99.90;;;;;;5033695;28;20025;-76
2022/06/07 09:40:20;;;;;;;20.83;18.60;;;16.60;99.90;;;;;;5033518;28;20036;-76
2022/06/07 09:43:11;;;;;;;26.77;20.60;;;16.70;99.90;;;;;;5033474;28;20053;-76
2022/06/07 09:45:39;;;;;;;26.60;21.15;;;16.70;99.90;;;;;;5026148;28;20029;-77
2022/06/07 09:48:41;;;;;;;23.98;19.35;;;16.70;99.90;;;;;;5033438;28;20021;-77
2022/06/07 09:51:28;;;;;;;29.80;21.77;;;16.70;99.90;;;;;;5033640;28;20032;-77
2022/06/07 09:54:13;;;;;;;25.08;21.20;;;16.70;99.90;;;;;;5033614;28;20060;-77
2022/06/07 09:56:58;;;;;;;36.03;22.77;;;16.60;99.90;;;;;;5033377;28;20400;-77
2022/06/07 09:59:24;;;;;;;27.80;21.35;;;16.70;99.90;;;;;;5033601;28;20029;-77
2022/06/07 10:02:08;;;;;;;27.00;21.38;;;16.70;99.90;;;;;;5033032;28;20025;-77
2022/06/07 10:04:59;;;;;;;27.90;20.60;;;16.70;99.90;;;;;;5032724;28;20504;-77
2022/06/07 10:07:34;;;;;;;47.80;24.77;;;16.80;99.90;;;;;;5033056;28;20030;-77
2022/06/07 10:10:12;;;;;;;26.52;20.60;;;16.90;99.90;;;;;;5033360;28;20091;-77
2022/06/07 10:13:03;;;;;;;26.13;20.42;;;16.90;99.90;;;;;;5032992;28;20148;-77
2022/06/07 10:15:40;;;;;;;26.50;19.27;;;17.00;99.90;;;;;;5032955;28;20059;-78
2022/06/07 10:18:34;;;;;;;26.50;20.40;;;17.00;99.90;;;;;;5033288;28;20026;-77
2022/06/07 10:21:08;;;;;;;22.63;19.65;;;16.90;99.90;;;;;;5032442;28;20093;-77
2022/06/07 10:23:44;;;;;;;25.67;21.27;;;17.00;99.90;;;;;;5033243;28;20026;-77
2022/06/07 10:26:29;;;;;;;28.02;21.77;;;17.10;99.90;;;;;;5032838;28;20053;-77
2022/06/07 10:29:01;;;;;;;22.25;19.90;;;17.10;99.90;;;;;;5033262;28;20125;-78
2022/06/07 10:31:39;;;;;;;24.52;18.98;;;17.10;99.90;;;;;;5032989;28;20025;-77
2022/06/07 10:34:27;;;;;;;21.60;17.35;;;17.20;99.90;;;;;;5033371;28;20048;-78
2022/06/07 10:37:07;;;;;;;21.60;19.33;;;17.20;99.90;;;;;;5032452;28;20037;-78
2022/06/07 10:39:54;;;;;;;21.40;17.60;;;17.20;99.90;;;;;;5033253;28;20025;-77
2022/06/07 10:42:47;;;;;;;21.42;17.33;;;17.20;99.90;;;;;;5032863;28;20032;-77
2022/06/07 10:45:31;;;;;;;22.38;16.80;;;17.20;99.90;;;;;;5033089;28;20021;-77
2022/06/07 10:48:06;;;;;;;22.85;16.10;;;17.30;99.90;;;;;;5032891;28;20041;-78
2022/06/07 10:50:49;;;;;;;24.80;18.63;;;17.40;99.90;;;;;;5032897;28;20021;-77
2022/06/07 10:53:24;;;;;;;21.52;17.15;;;17.30;99.90;;;;;;5032757;28;20033;-78
2022/06/07 10:56:03;;;;;;;19.92;17.45;;;17.30;99.90;;;;;;5032891;28;20087;-78
2022/06/07 10:58:40;;;;;;;23.00;17.20;;;17.30;99.90;;;;;;5032608;28;20377;-78
2022/06/07 11:01:25;;;;;;;20.17;17.05;;;17.30;99.90;;;;;;5032736;28;20060;-78
2022/06/07 11:10:14;;;;;;;21.40;15.80;;;17.40;99.90;;;;;;5032992;28;20032;-77
2022/06/07 11:13:07;;;;;;;21.92;16.10;;;17.40;99.90;;;;;;5032535;28;20029;-78
2022/06/07 11:15:44;;;;;;;;;;;17.40;99.90;;;;;;5027026;28;20124;-77
2022/06/07 11:18:17;;;;;;;20.83;15.45;;;17.30;99.90;;;;;;5032224;28;19932;-77
2022/06/07 11:21:02;;;;;;;16.83;14.75;;;17.30;99.90;;;;;;5031911;28;20104;-77
2022/06/07 11:23:47;;;;;;;18.90;15.73;;;17.30;99.90;;;;;;5032456;28;20026;-78
2022/06/07 11:26:17;;;;;;;19.85;16.60;;;17.30;99.90;;;;;;5032079;28;20108;-78
2022/06/07 11:28:48;;;;;;;21.33;17.05;;;17.30;99.90;;;;;;5032363;28;20033;-78
2022/06/07 11:31:33;;;;;;;22.17;17.55;;;17.30;99.90;;;;;;5032865;28;20025;-78
2022/06/07 11:34:10;;;;;;;21.40;18.35;;;17.30;99.90;;;;;;5035835;28;20500;-77
2022/06/07 11:36:41;;;;;;;21.00;17.08;;;17.30;99.90;;;;;;5036210;28;20083;-77
2022/06/07 11:39:28;;;;;;;19.92;16.50;;;17.50;99.90;;;;;;5035881;28;20029;-78
2022/06/07 11:42:21;;;;;;;21.35;17.90;;;17.80;99.90;;;;;;5035768;28;20100;-78
2022/06/07 11:45:25;;;;;;;18.95;16.20;;;18.00;99.90;;;;;;5030059;28;20033;-78
2022/06/07 11:48:11;;;;;;;20.17;15.30;;;18.20;99.90;;;;;;5036004;28;20033;-77
2022/06/07 11:51:08;;;;;;;17.48;14.68;;;18.40;99.90;;;;;;5035347;28;20022;-77
2022/06/07 11:53:35;;;;;;;19.33;15.15;;;18.60;99.40;;;;;;5033195;28;20037;-77
2022/06/07 11:56:27;;;;;;;15.48;11.85;;;18.70;98.40;;;;;;5035401;28;20029;-77
2022/06/07 11:59:18;;;;;;;15.52;12.43;;;18.90;97.80;;;;;;5035762;28;20024;-78
2022/06/07 12:02:08;;;;;;;16.05;13.55;;;19.00;97.50;;;;;;5016296;28;20040;-78
2022/06/07 12:04:52;;;;;;;14.57;12.88;;;19.10;97.10;;;;;;5034851;28;20532;-78
2022/06/07 12:07:39;;;;;;;14.30;12.63;;;19.10;97.00;;;;;;5035510;28;20033;-78
2022/06/07 12:10:16;;;;;;;17.05;12.43;;;19.30;96.70;;;;;;5035445;28;20022;-78
2022/06/07 12:12:55;;;;;;;17.38;13.65;;;19.40;96.30;;;;;;5035288;28;20068;-78
2022/06/07 12:15:42;;;;;;;17.50;13.23;;;19.40;96.10;;;;;;5034853;28;20037;-77
2022/06/07 12:18:20;;;;;;;13.45;12.05;;;19.50;96.20;;;;;;5034781;28;20045;-77
2022/06/07 12:20:56;;;;;;;12.52;11.20;;;19.60;96.00;;;;;;5034308;28;20049;-77
2022/06/07 12:23:29;;;;;;;13.50;10.20;;;19.80;96.10;;;;;;5034502;28;20029;-77
2022/06/07 12:25:57;;;;;;;;;;;20.00;95.80;;;;;;5035482;28;20075;-77
2022/06/07 12:28:26;;;;;;;13.93;10.48;;;20.20;95.10;;;;;;5035169;28;19913;-76
2022/06/07 12:30:51;;;;;;;11.85;9.52;;;20.20;95.10;;;;;;5034532;28;20025;-77
2022/06/07 12:33:32;;;;;;;10.82;8.77;;;20.30;94.90;;;;;;5035122;28;20442;-77
2022/06/07 12:36:16;;;;;;;12.15;8.20;;;20.50;95.10;;;;;;5035098;28;20087;-77
2022/06/07 12:38:46;;;;;;;10.98;8.80;;;20.70;94.20;;;;;;5034964;28;20024;-77
2022/06/07 12:41:17;;;;;;;14.00;9.45;;;20.70;94.00;;;;;;5034527;28;20034;-77
2022/06/07 12:43:49;;;;;;;10.30;9.07;;;20.70;93.70;;;;;;5034035;28;20022;-77
2022/06/07 12:46:25;;;;;;;8.80;7.65;;;20.60;93.40;;;;;;5034565;28;20498;-77
2022/06/07 12:48:52;;;;;;;8.80;7.10;;;20.50;93.70;;;;;;5034776;28;20071;-77
2022/06/07 12:51:36;;;;;;;8.82;7.95;;;20.60;93.80;;;;;;5034792;28;20389;-77
2022/06/07 12:54:07;;;;;;;14.30;9.43;;;20.60;93.00;;;;;;5034802;28;20045;-77
2022/06/07 12:56:37;;;;;;;10.03;8.07;;;20.60;92.70;;;;;;5033985;28;20049;-78
2022/06/07 12:59:07;;;;;;;9.48;7.55;;;20.60;92.60;;;;;;5034611;28;20269;-78
2022/06/07 13:01:38;;;;;;;12.95;9.20;;;20.80;93.10;;;;;;5034277;28;20481;-78
2022/06/07 13:04:37;;;;;;;11.38;9.50;;;20.90;92.70;;;;;;5034311;28;20399;-78
2022/06/07 13:07:14;;;;;;;12.90;8.15;;;21.00;91.90;;;;;;5029121;28;20041;-78
2022/06/07 13:09:40;;;;;;;12.45;9.15;;;21.00;91.70;;;;;;5034595;28;20025;-78
2022/06/07 13:12:07;;;;;;;10.43;7.63;;;20.90;91.50;;;;;;5034342;28;20377;-78